createdAt,value
2022-09-15T00:03:44.492Z,16.44
2022-09-15T00:08:47.530Z,16.47
2022-09-15T00:13:52.747Z,16.38
2022-09-15T00:18:55.912Z,16.31
2022-09-15T00:23:59.414Z,16.28
2022-09-15T00:29:04.109Z,16.22
2022-09-15T00:34:07.363Z,16.18
2022-09-15T00:39:10.366Z,16.16
2022-09-15T00:44:31.814Z,16.20
2022-09-15T00:49:38.008Z,16.25
2022-09-15T00:54:43.717Z,16.26
2022-09-15T00:59:47.159Z,16.31
2022-09-15T01:04:57.445Z,16.30
2022-09-15T01:10:03.983Z,16.36
2022-09-15T01:15:07.289Z,16.35
2022-09-15T01:20:33.973Z,16.30
2022-09-15T01:25:49.463Z,16.38
2022-09-15T01:30:55.990Z,16.26
2022-09-15T01:36:02.590Z,16.35
2022-09-15T01:41:09.259Z,16.32
2022-09-15T01:46:15.649Z,16.34
2022-09-15T01:51:19.258Z,16.30
2022-09-15T01:56:22.192Z,16.41
2022-09-15T02:01:31.781Z,16.43
2022-09-15T02:06:37.387Z,16.41
2022-09-15T02:11:47.777Z,16.36
2022-09-15T02:16:54.398Z,16.38
2022-09-15T02:22:00.292Z,16.35
2022-09-15T02:27:04.916Z,16.34
2022-09-15T02:32:09.607Z,16.42
2022-09-15T02:37:12.705Z,16.46
2022-09-15T02:42:24.647Z,16.47
2022-09-15T02:47:29.626Z,16.41
2022-09-15T02:52:33.067Z,16.34
2022-09-15T02:57:35.999Z,16.50
2022-09-15T03:02:40.547Z,16.53
2022-09-15T03:07:43.955Z,16.60
2022-09-15T03:12:47.773Z,16.56
2022-09-15T03:17:52.326Z,16.53
2022-09-15T03:22:55.381Z,16.52
2022-09-15T03:27:58.311Z,16.50
2022-09-15T03:33:02.573Z,16.48
2022-09-15T03:38:05.550Z,16.46
2022-09-15T03:43:08.460Z,16.45
2022-09-15T03:48:12.691Z,16.43
2022-09-15T03:53:15.774Z,16.43
2022-09-15T03:58:19.445Z,16.35
2022-09-15T04:03:23.817Z,16.40
2022-09-15T04:08:26.870Z,16.32
2022-09-15T04:13:29.847Z,16.35
2022-09-15T04:18:34.168Z,16.32
2022-09-15T04:23:37.274Z,16.39
2022-09-15T04:28:41.209Z,16.43
2022-09-15T04:33:46.244Z,16.47
2022-09-15T04:38:50.739Z,16.48
2022-09-15T04:43:53.995Z,16.52
2022-09-15T04:48:58.290Z,16.47
2022-09-15T04:54:01.280Z,16.46
2022-09-15T04:59:04.465Z,16.40
2022-09-15T05:04:08.910Z,16.43
2022-09-15T05:09:13.957Z,16.46
2022-09-15T05:14:16.889Z,16.50
2022-09-15T05:19:21.788Z,16.50
2022-09-15T05:24:24.779Z,16.47
2022-09-15T05:29:27.765Z,16.51
2022-09-15T05:34:32.082Z,16.57
2022-09-15T05:39:35.054Z,16.58
2022-09-15T05:44:38.060Z,16.58
2022-09-15T05:49:42.370Z,16.64
2022-09-15T05:54:45.466Z,16.61
2022-09-15T05:59:48.482Z,16.64
2022-09-15T06:04:52.905Z,16.61
2022-09-15T06:09:55.810Z,16.68
2022-09-15T06:14:59.938Z,16.65
2022-09-15T06:20:07.002Z,16.69
2022-09-15T06:25:11.897Z,16.71
2022-09-15T06:30:15.054Z,16.75
2022-09-15T06:35:19.472Z,16.77
2022-09-15T06:40:22.534Z,16.88
2022-09-15T06:45:25.738Z,16.98
2022-09-15T06:50:30.246Z,16.97
2022-09-15T06:55:34.233Z,16.94
2022-09-15T07:00:37.225Z,17.02
2022-09-15T07:05:42.122Z,17.06
2022-09-15T07:10:45.873Z,17.12
2022-09-15T07:15:52.453Z,17.13
2022-09-15T07:21:00.769Z,17.15
2022-09-15T07:26:08.265Z,17.21
2022-09-15T07:31:12.904Z,17.21
2022-09-15T07:36:17.950Z,17.14
2022-09-15T07:41:22.442Z,17.18
2022-09-15T07:46:26.631Z,17.40
2022-09-15T07:51:31.419Z,17.30
2022-09-15T07:56:34.360Z,17.21
2022-09-15T08:01:37.428Z,17.12
2022-09-15T08:06:41.849Z,17.31
2022-09-15T08:11:45.135Z,17.41
2022-09-15T08:16:48.164Z,17.57
2022-09-15T08:21:52.463Z,17.71
2022-09-15T08:26:55.834Z,17.65
2022-09-15T08:31:59.838Z,17.60
2022-09-15T08:37:04.274Z,17.59
2022-09-15T08:42:07.538Z,17.61
2022-09-15T08:47:14.403Z,17.69
2022-09-15T08:52:22.489Z,17.81
2022-09-15T08:57:26.769Z,17.85
2022-09-15T09:02:42.294Z,17.98
2022-09-15T09:07:59.825Z,18.09
2022-09-15T09:13:08.566Z,18.27
2022-09-15T09:18:23.501Z,18.49
2022-09-15T09:23:29.515Z,18.73
2022-09-15T09:28:33.567Z,18.97
2022-09-15T09:33:46.625Z,19.19
2022-09-15T09:38:52.364Z,19.27
2022-09-15T09:43:56.951Z,19.54
2022-09-15T09:49:02.964Z,20.11
2022-09-15T09:54:11.185Z,20.65
2022-09-15T09:59:34.717Z,21.16
2022-09-15T10:04:38.067Z,21.53
2022-09-15T10:09:50.195Z,21.67
2022-09-15T10:14:54.430Z,21.95
2022-09-15T10:19:58.374Z,21.98
2022-09-15T10:25:03.186Z,22.02
2022-09-15T10:30:17.902Z,21.73
2022-09-15T10:35:22.028Z,22.09
2022-09-15T10:40:33.423Z,21.97
2022-09-15T10:45:39.147Z,22.50
2022-09-15T10:50:47.045Z,22.52
2022-09-15T10:55:57.243Z,21.92
2022-09-15T11:01:05.806Z,21.53
2022-09-15T11:06:16.542Z,21.11
2022-09-15T11:11:23.611Z,20.79
2022-09-15T11:16:30.922Z,20.61
2022-09-15T11:21:36.290Z,20.55
2022-09-15T11:26:43.760Z,20.40
2022-09-15T11:31:49.917Z,20.46
2022-09-15T11:36:55.429Z,20.50
2022-09-15T11:42:04.820Z,20.69
2022-09-15T11:47:11.701Z,20.79
2022-09-15T11:52:22.755Z,20.68
2022-09-15T11:57:31.655Z,20.49
2022-09-15T12:02:39.871Z,20.14
2022-09-15T12:07:45.043Z,20.03
2022-09-15T12:12:51.548Z,19.85
2022-09-15T12:18:06.416Z,19.97
2022-09-15T12:23:24.645Z,20.03
2022-09-15T12:28:38.090Z,20.02
2022-09-15T12:33:45.038Z,19.89
2022-09-15T12:38:49.099Z,19.84
2022-09-15T12:43:55.318Z,20.02
2022-09-15T12:49:01.807Z,19.90
2022-09-15T12:54:08.778Z,19.65
2022-09-15T12:59:15.980Z,19.59
2022-09-15T13:04:27.288Z,19.48
2022-09-15T13:09:30.370Z,19.82
2022-09-15T13:14:38.077Z,20.03
2022-09-15T13:19:43.715Z,19.97
2022-09-15T13:24:49.767Z,19.89
2022-09-15T13:30:01.819Z,19.76
2022-09-15T13:35:26.552Z,19.78
2022-09-15T13:40:39.980Z,19.73
2022-09-15T13:46:02.475Z,19.94
2022-09-15T13:51:10.867Z,19.90
2022-09-15T13:56:17.345Z,19.73
2022-09-15T14:01:23.843Z,19.64
2022-09-15T14:06:30.317Z,19.56
2022-09-15T14:11:34.645Z,19.58
2022-09-15T14:16:50.029Z,19.70
2022-09-15T14:21:58.236Z,19.79
2022-09-15T14:27:08.393Z,19.77
2022-09-15T14:32:15.478Z,19.66
2022-09-15T14:37:21.568Z,19.47
2022-09-15T14:42:29.656Z,19.51
2022-09-15T14:47:33.939Z,19.56
2022-09-15T14:52:38.962Z,19.68
2022-09-15T15:02:58.484Z,19.52
2022-09-15T15:08:02.397Z,19.58
2022-09-15T15:13:07.198Z,19.52
2022-09-15T15:18:29.335Z,19.50
2022-09-15T15:23:46.951Z,19.34
2022-09-15T15:28:50.038Z,19.30
2022-09-15T15:33:53.844Z,19.21
2022-09-15T15:38:59.710Z,19.21
2022-09-15T15:44:07.908Z,19.08
2022-09-15T15:49:11.208Z,19.10
2022-09-15T15:54:15.592Z,18.97
2022-09-15T15:59:18.869Z,18.92
2022-09-15T16:04:22.506Z,18.85
2022-09-15T16:09:27.085Z,18.81
2022-09-15T16:14:30.075Z,18.81
2022-09-15T16:19:33.022Z,18.76
2022-09-15T16:24:37.375Z,18.66
2022-09-15T16:29:40.307Z,18.59
2022-09-15T16:34:43.331Z,18.47
2022-09-15T16:39:47.800Z,18.43
2022-09-15T16:44:50.788Z,18.36
2022-09-15T16:49:53.821Z,18.32
2022-09-15T16:54:58.386Z,18.23
2022-09-15T17:00:01.393Z,18.16
2022-09-15T17:05:04.944Z,18.13
2022-09-15T17:10:09.767Z,18.06
2022-09-15T17:15:19.044Z,17.98
2022-09-15T17:20:22.337Z,18.05
2022-09-15T17:25:28.522Z,17.97
2022-09-15T17:30:32.334Z,17.91
2022-09-15T17:35:36.028Z,17.84
2022-09-15T17:40:40.574Z,17.77
2022-09-15T17:45:43.854Z,17.70
2022-09-15T17:50:48.805Z,17.67
2022-09-15T17:55:55.606Z,17.65
2022-09-15T18:00:58.853Z,17.66
2022-09-15T18:06:03.855Z,17.63
2022-09-15T18:11:08.762Z,17.60
2022-09-15T18:16:13.452Z,17.53
2022-09-15T18:21:24.564Z,17.53
2022-09-15T18:26:29.457Z,17.38
2022-09-15T18:31:34.153Z,17.38
2022-09-15T18:36:37.375Z,17.33
2022-09-15T18:41:42.103Z,17.32
2022-09-15T18:46:45.682Z,17.25
2022-09-15T18:51:51.473Z,17.22
2022-09-15T18:56:56.485Z,17.28
2022-09-15T19:01:59.951Z,17.36
2022-09-15T19:07:03.100Z,17.35
2022-09-15T19:12:07.554Z,17.39
2022-09-15T19:17:10.603Z,17.30
2022-09-15T19:22:13.666Z,17.22
2022-09-15T19:27:17.996Z,17.29
2022-09-15T19:32:21.103Z,17.38
2022-09-15T19:37:24.122Z,17.36
2022-09-15T19:42:28.486Z,17.32
2022-09-15T19:47:31.435Z,17.28
2022-09-15T19:52:34.420Z,17.41
2022-09-15T19:57:40.682Z,17.29
2022-09-15T20:02:44.006Z,17.29
2022-09-15T20:07:48.224Z,17.38
2022-09-15T20:12:52.855Z,17.36
2022-09-15T20:17:57.260Z,17.39
2022-09-15T20:23:00.597Z,17.36
2022-09-15T20:28:05.228Z,17.34
2022-09-15T20:33:08.471Z,17.31
2022-09-15T20:38:12.145Z,17.28
2022-09-15T20:43:16.911Z,17.13
2022-09-15T20:48:20.497Z,17.04
2022-09-15T20:53:23.922Z,16.98
2022-09-15T20:58:29.430Z,16.96
2022-09-15T21:03:32.821Z,16.95
2022-09-15T21:08:36.794Z,16.94
2022-09-15T21:13:44.196Z,17.00
2022-09-15T21:18:48.029Z,16.93
2022-09-15T21:23:53.108Z,16.82
2022-09-15T21:28:58.426Z,16.79
2022-09-15T21:34:01.852Z,16.70
2022-09-15T21:39:05.091Z,16.67
2022-09-15T21:44:09.871Z,16.73
2022-09-15T21:49:13.262Z,16.63
2022-09-15T21:54:16.537Z,16.59
2022-09-15T21:59:21.147Z,16.64
2022-09-15T22:04:24.791Z,16.55
2022-09-15T22:09:28.142Z,16.61
2022-09-15T22:14:33.636Z,16.51
2022-09-15T22:19:37.040Z,16.52
2022-09-15T22:24:40.330Z,16.46
2022-09-15T22:29:44.971Z,16.38
2022-09-15T22:34:49.418Z,16.45
2022-09-15T22:39:58.887Z,16.33
2022-09-15T22:45:04.129Z,16.28
2022-09-15T22:50:07.560Z,16.16
2022-09-15T22:55:10.801Z,16.04
2022-09-15T23:00:16.333Z,15.97
2022-09-15T23:05:19.343Z,15.91
2022-09-15T23:10:22.300Z,15.92
2022-09-15T23:15:26.647Z,15.80
2022-09-15T23:20:29.644Z,15.70
2022-09-15T23:25:32.734Z,15.60
2022-09-15T23:30:39.332Z,15.67
2022-09-15T23:35:42.378Z,15.76
2022-09-15T23:40:45.772Z,15.75
2022-09-15T23:45:51.217Z,15.60
2022-09-15T23:50:54.429Z,15.45
2022-09-15T23:55:57.506Z,15.34
